createdAt,value
2019-05-25T00:00:09.425Z,34.21
2019-05-25T00:01:09.426Z,33.71
2019-05-25T00:02:09.411Z,34.11
2019-05-25T00:03:09.418Z,34.11
2019-05-25T00:04:09.384Z,35.11
2019-05-25T00:05:09.386Z,34.11
2019-05-25T00:06:09.355Z,34.81
2019-05-25T00:07:09.384Z,34.41
2019-05-25T00:08:09.333Z,34.51
2019-05-25T00:09:09.326Z,34.71
2019-05-25T00:10:09.316Z,34.71
2019-05-25T00:11:09.303Z,34.11
2019-05-25T00:12:09.293Z,34.81
2019-05-25T00:13:09.302Z,34.11
2019-05-25T00:14:09.270Z,34.01
2019-05-25T00:15:09.258Z,34.01
2019-05-25T00:16:09.247Z,34.71
2019-05-25T00:17:09.240Z,34.81
2019-05-25T00:18:09.230Z,34.31
2019-05-25T00:19:09.223Z,34.21
2019-05-25T00:20:09.201Z,34.11
2019-05-25T00:21:09.191Z,34.41
2019-05-25T00:22:09.183Z,34.21
2019-05-25T00:23:09.204Z,34.31
2019-05-25T00:24:12.586Z,34.61
2019-05-25T00:25:09.143Z,34.11
2019-05-25T00:26:09.141Z,34.21
2019-05-25T00:28:15.527Z,34.01
2019-05-25T00:43:08.947Z,34.51
2019-05-25T00:48:08.888Z,34.21
2019-05-25T01:00:14.863Z,34.21
2019-05-25T01:14:08.608Z,34.11
2019-05-25T01:19:08.550Z,34.41
2019-05-25T01:32:14.499Z,34.51
2019-05-25T01:45:08.269Z,34.21
2019-05-25T01:50:08.226Z,34.11
2019-05-25T02:04:14.431Z,34.01
2019-05-25T02:16:07.957Z,34.91
2019-05-25T02:21:07.858Z,35.01
2019-05-25T02:36:13.787Z,34.71
2019-05-25T02:47:07.575Z,34.61
2019-05-25T02:52:07.520Z,34.41
2019-05-25T03:08:13.436Z,35.31
2019-05-25T03:18:07.233Z,34.81
2019-05-25T03:23:07.176Z,34.71
2019-05-25T03:40:13.075Z,35.81
2019-05-25T03:49:06.933Z,36.21
2019-05-25T03:54:06.827Z,36.71
2019-05-25T04:12:12.721Z,37.21
2019-05-25T04:20:06.542Z,37.01
2019-05-25T04:25:06.486Z,37.31
2019-05-25T04:44:12.644Z,37.21
2019-05-25T04:51:06.197Z,37.81
2019-05-25T04:56:06.142Z,38.31
2019-05-25T05:16:12.169Z,38.51
2019-05-25T05:22:06.222Z,38.91
2019-05-25T05:27:05.795Z,38.51
2019-05-25T05:48:11.714Z,39.61
2019-05-25T05:53:05.511Z,39.61
2019-05-25T05:58:05.496Z,39.41
2019-05-25T06:20:11.708Z,40.31
2019-05-25T06:24:05.160Z,39.72
2019-05-25T06:29:05.108Z,40.61
2019-05-25T06:52:11.255Z,41.21
2019-05-25T06:55:04.848Z,41.41
2019-05-25T07:00:04.764Z,40.91
2019-05-25T07:24:10.590Z,41.41
2019-05-25T07:26:04.474Z,41.31
2019-05-25T07:31:04.424Z,41.71
2019-05-25T07:56:10.238Z,41.91
2019-05-25T07:57:04.133Z,41.71
2019-05-25T08:02:04.079Z,41.91
2019-05-25T08:28:09.880Z,43.12
2019-05-25T08:33:03.742Z,43.12
2019-05-25T08:59:03.493Z,43.62
2019-05-25T09:00:09.523Z,44.21
2019-05-25T09:02:03.437Z,43.71
2019-05-25T09:03:03.393Z,43.71
2019-05-25T09:04:03.390Z,43.91
2019-05-25T09:05:03.371Z,43.91
2019-05-25T09:06:03.365Z,43.82
2019-05-25T09:07:03.349Z,43.71
2019-05-25T09:08:03.345Z,44.21
2019-05-25T09:09:03.342Z,43.71
2019-05-25T09:10:03.322Z,44.21
2019-05-25T09:11:03.307Z,43.71
2019-05-25T09:12:03.296Z,43.82
2019-05-25T09:13:03.290Z,44.13
2019-05-25T09:14:03.274Z,44.01
2019-05-25T09:15:05.913Z,43.82
2019-05-25T09:16:03.251Z,44.21
2019-05-25T09:17:03.243Z,44.71
2019-05-25T09:18:03.231Z,44.01
2019-05-25T09:19:03.219Z,43.91
2019-05-25T09:20:03.203Z,44.32
2019-05-25T09:21:03.233Z,43.51
2019-05-25T09:22:04.018Z,43.62
2019-05-25T09:23:03.172Z,44.42
2019-05-25T09:24:03.167Z,43.71
2019-05-25T09:25:03.146Z,44.42
2019-05-25T09:26:03.140Z,44.01
2019-05-25T09:27:03.148Z,44.01
2019-05-25T09:28:03.115Z,44.01
2019-05-25T09:29:04.843Z,44.12
2019-05-25T09:30:03.091Z,44.32
2019-05-25T09:31:03.086Z,44.54
2019-05-25T09:32:09.798Z,44.43
2019-05-25T09:33:03.058Z,43.82
2019-05-25T09:34:03.116Z,43.82
2019-05-25T09:35:03.044Z,43.82
2019-05-25T09:36:03.039Z,44.04
2019-05-25T09:37:03.020Z,43.74
2019-05-25T09:38:03.012Z,43.62
2019-05-25T09:39:02.996Z,43.33
2019-05-25T09:40:02.987Z,43.62
2019-05-25T09:41:02.986Z,43.32
2019-05-25T09:42:02.960Z,43.04
2019-05-25T09:43:02.949Z,43.84
2019-05-25T09:44:02.935Z,43.84
2019-05-25T09:45:02.926Z,43.12
2019-05-25T09:46:03.419Z,43.13
2019-05-25T09:47:02.918Z,43.43
2019-05-25T09:48:02.897Z,43.43
2019-05-25T09:49:02.883Z,43.93
2019-05-25T09:50:02.874Z,43.74
2019-05-25T09:51:02.866Z,43.91
2019-05-25T09:52:02.847Z,44.13
2019-05-25T09:53:02.852Z,44.04
2019-05-25T09:54:02.824Z,44.04
2019-05-25T09:55:02.813Z,43.63
2019-05-25T09:56:02.809Z,44.13
2019-05-25T09:57:02.797Z,43.91
2019-05-25T09:58:02.784Z,43.41
2019-05-25T09:59:02.781Z,43.62
2019-05-25T10:00:02.757Z,43.82
2019-05-25T10:01:02.752Z,44.12
2019-05-25T10:02:02.740Z,43.33
2019-05-25T10:03:02.760Z,43.51
2019-05-25T10:04:09.101Z,43.91
2019-05-25T10:05:02.700Z,44.24
2019-05-25T10:06:10.625Z,44.24
2019-05-25T10:07:03.675Z,44.32
2019-05-25T10:08:02.673Z,44.24
2019-05-25T10:09:02.694Z,44.24
2019-05-25T10:10:02.662Z,44.42
2019-05-25T10:11:02.642Z,43.82
2019-05-25T10:12:02.626Z,44.92
2019-05-25T10:13:02.610Z,44.51
2019-05-25T10:14:02.626Z,45.12
2019-05-25T10:15:02.602Z,45.12
2019-05-25T10:16:02.595Z,44.62
2019-05-25T10:17:02.566Z,45.72
2019-05-25T10:18:02.557Z,45.01
2019-05-25T10:19:02.561Z,45.21
2019-05-25T10:20:02.541Z,45.51
2019-05-25T10:21:02.525Z,45.62
2019-05-25T10:22:02.513Z,45.72
2019-05-25T10:23:02.545Z,45.72
2019-05-25T10:24:02.491Z,45.84
2019-05-25T10:25:02.509Z,45.31
2019-05-25T10:26:02.470Z,45.72
2019-05-25T10:27:02.456Z,45.12
2019-05-25T10:28:02.449Z,45.62
2019-05-25T10:29:02.432Z,45.81
2019-05-25T10:30:02.467Z,45.51
2019-05-25T10:31:02.415Z,45.42
2019-05-25T10:32:02.432Z,45.62
2019-05-25T10:33:02.388Z,46.01
2019-05-25T10:34:03.301Z,45.81
2019-05-25T10:35:02.367Z,45.62
2019-05-25T10:36:08.852Z,46.12
2019-05-25T10:37:02.343Z,45.92
2019-05-25T10:38:02.339Z,45.72
2019-05-25T10:39:02.326Z,46.31
2019-05-25T10:40:02.357Z,46.22
2019-05-25T10:41:02.307Z,45.72
2019-05-25T10:42:02.301Z,46.12
2019-05-25T10:43:02.288Z,45.84
2019-05-25T10:44:02.267Z,46.14
2019-05-25T10:45:02.261Z,46.12
2019-05-25T10:46:02.242Z,46.04
2019-05-25T10:47:02.246Z,46.14
2019-05-25T10:48:02.219Z,46.14
2019-05-25T10:49:02.207Z,45.74
2019-05-25T10:50:02.202Z,46.01
2019-05-25T10:51:02.198Z,45.64
2019-05-25T10:52:02.195Z,45.92
2019-05-25T10:53:02.168Z,45.92
2019-05-25T10:54:02.158Z,46.12
2019-05-25T10:55:02.240Z,45.92
2019-05-25T10:56:02.130Z,46.12
2019-05-25T10:57:02.122Z,45.21
2019-05-25T10:58:02.123Z,46.12
2019-05-25T10:59:02.106Z,45.72
2019-05-25T11:00:02.093Z,45.72
2019-05-25T11:01:02.082Z,45.72
2019-05-25T11:02:02.068Z,45.21
2019-05-25T11:03:02.071Z,44.92
2019-05-25T11:04:02.044Z,44.21
2019-05-25T11:05:02.034Z,44.62
2019-05-25T11:06:02.023Z,44.82
2019-05-25T11:07:02.013Z,44.71
2019-05-25T11:09:02.006Z,44.62
2019-05-25T11:10:01.975Z,44.51
2019-05-25T11:11:01.965Z,44.42
2019-05-25T11:12:01.970Z,45.31
2019-05-25T11:13:01.946Z,44.62
2019-05-25T11:14:01.975Z,44.62
2019-05-25T11:15:01.933Z,44.51
2019-05-25T11:16:01.914Z,44.42
2019-05-25T11:17:01.971Z,44.82
2019-05-25T11:18:01.898Z,44.51
2019-05-25T11:19:01.878Z,45.01
2019-05-25T11:20:01.905Z,45.01
2019-05-25T11:21:01.868Z,45.12
2019-05-25T11:22:01.847Z,44.92
2019-05-25T11:23:01.845Z,44.82
2019-05-25T11:24:01.824Z,44.21
2019-05-25T11:25:01.810Z,44.92
2019-05-25T11:26:01.813Z,44.32
2019-05-25T11:27:01.791Z,45.62
2019-05-25T11:28:01.786Z,44.21
2019-05-25T11:29:01.766Z,45.81
2019-05-25T11:30:08.912Z,45.01
2019-05-25T11:31:02.743Z,45.62
2019-05-25T11:32:05.110Z,45.51
2019-05-25T11:33:01.727Z,45.72
2019-05-25T11:34:01.766Z,45.21
2019-05-25T11:35:01.722Z,45.51
2019-05-25T11:36:01.720Z,45.51
2019-05-25T11:37:01.675Z,45.31
2019-05-25T11:38:01.673Z,46.01
2019-05-25T11:39:01.660Z,46.01
2019-05-25T11:40:07.854Z,45.92
2019-05-25T11:41:01.643Z,45.42
2019-05-25T11:42:01.631Z,45.51
2019-05-25T11:43:01.616Z,45.81
2019-05-25T11:44:01.598Z,45.62
2019-05-25T11:45:01.592Z,45.72
2019-05-25T11:46:01.590Z,45.72
2019-05-25T11:47:01.607Z,45.51
2019-05-25T11:48:01.557Z,45.62
2019-05-25T11:49:01.548Z,45.54
2019-05-25T11:50:01.531Z,45.64
2019-05-25T11:51:01.528Z,45.84
2019-05-25T11:52:01.513Z,45.64
2019-05-25T11:53:05.513Z,45.62
2019-05-25T11:54:01.495Z,45.64
2019-05-25T11:55:01.481Z,45.54
2019-05-25T11:56:01.470Z,45.64
2019-05-25T11:57:01.457Z,45.43
2019-05-25T11:58:01.459Z,45.43
2019-05-25T11:59:01.445Z,45.54
2019-05-25T12:00:01.427Z,45.43
2019-05-25T12:01:01.409Z,45.54
2019-05-25T12:02:01.399Z,45.54
2019-05-25T12:03:01.395Z,45.84
2019-05-25T12:04:01.438Z,45.64
2019-05-25T12:05:01.373Z,45.74
2019-05-25T12:06:01.357Z,45.04
2019-05-25T12:07:01.346Z,45.54
2019-05-25T12:08:01.342Z,45.14
2019-05-25T12:09:01.324Z,45.04
2019-05-25T12:10:01.326Z,44.51
2019-05-25T12:11:01.299Z,44.82
2019-05-25T12:12:07.379Z,44.82
2019-05-25T12:13:01.277Z,45.21
2019-05-25T12:14:01.271Z,44.62
2019-05-25T12:15:01.262Z,44.62
2019-05-25T12:16:01.247Z,44.82
2019-05-25T12:17:01.237Z,44.21
2019-05-25T12:18:01.226Z,44.01
2019-05-25T12:19:01.212Z,44.12
2019-05-25T12:20:01.220Z,44.62
2019-05-25T12:21:01.191Z,43.91
2019-05-25T12:22:01.181Z,44.12
2019-05-25T12:23:01.184Z,44.62
2019-05-25T12:24:01.159Z,43.71
2019-05-25T12:25:01.189Z,44.12
2019-05-25T12:26:01.140Z,44.21
2019-05-25T12:27:01.121Z,43.71
2019-05-25T12:28:01.113Z,43.41
2019-05-25T12:29:01.106Z,43.41
2019-05-25T12:30:01.090Z,44.12
2019-05-25T12:31:01.091Z,44.01
2019-05-25T12:32:04.302Z,43.91
2019-05-25T12:33:01.059Z,44.12
2019-05-25T12:34:01.105Z,44.01
2019-05-25T12:35:01.039Z,43.91
2019-05-25T12:36:01.070Z,44.42
2019-05-25T12:37:01.011Z,44.01
2019-05-25T12:38:01.004Z,44.21
2019-05-25T12:39:00.994Z,44.51
2019-05-25T12:40:00.978Z,44.32
2019-05-25T12:41:00.966Z,44.21
2019-05-25T12:42:00.968Z,44.12
2019-05-25T12:43:00.951Z,44.12
2019-05-25T12:44:07.021Z,44.62
2019-05-25T12:45:00.949Z,44.01
2019-05-25T12:46:00.910Z,43.82
2019-05-25T12:47:01.006Z,43.82
2019-05-25T12:48:00.889Z,44.12
2019-05-25T12:49:00.877Z,44.42
2019-05-25T12:50:00.872Z,43.91
2019-05-25T12:51:00.864Z,43.91
2019-05-25T12:52:00.845Z,44.82
2019-05-25T12:53:00.901Z,44.82
2019-05-25T12:54:00.821Z,44.71
2019-05-25T12:55:00.816Z,44.42
2019-05-25T12:56:00.802Z,44.62
2019-05-25T12:57:02.840Z,44.51
2019-05-25T12:58:00.784Z,44.62
2019-05-25T12:59:00.784Z,44.92
2019-05-25T13:00:14.338Z,44.32
2019-05-25T13:01:01.744Z,44.82
2019-05-25T13:02:00.743Z,44.01
2019-05-25T13:03:00.726Z,44.21
2019-05-25T13:04:00.713Z,44.12
2019-05-25T13:05:00.718Z,44.01
2019-05-25T13:06:00.700Z,44.12
2019-05-25T13:07:00.683Z,44.21
2019-05-25T13:08:00.673Z,44.51
2019-05-25T13:09:00.683Z,44.32
2019-05-25T13:10:00.658Z,44.82
2019-05-25T13:11:00.637Z,43.32
2019-05-25T13:12:00.625Z,44.12
2019-05-25T13:13:02.201Z,43.71
2019-05-25T13:14:13.660Z,44.12
2019-05-25T13:15:01.600Z,43.82
2019-05-25T13:16:06.731Z,43.91
2019-05-25T13:17:00.570Z,44.01
2019-05-25T13:18:00.566Z,44.42
2019-05-25T13:19:00.553Z,44.82
2019-05-25T13:20:00.573Z,44.42
2019-05-25T13:21:00.530Z,43.82
2019-05-25T13:22:00.548Z,43.82
2019-05-25T13:23:00.508Z,43.82
2019-05-25T13:24:00.495Z,44.01
2019-05-25T13:25:00.480Z,44.21
2019-05-25T13:26:00.478Z,44.71
2019-05-25T13:27:00.460Z,44.82
2019-05-25T13:28:00.458Z,44.62
2019-05-25T13:29:00.446Z,43.91
2019-05-25T13:30:03.069Z,44.21
2019-05-25T13:31:11.353Z,44.32
2019-05-25T13:32:01.401Z,44.12
2019-05-25T13:33:00.392Z,43.41
2019-05-25T13:34:00.451Z,44.12
2019-05-25T13:35:00.372Z,43.82
2019-05-25T13:36:00.357Z,44.12
2019-05-25T13:37:01.933Z,44.01
2019-05-25T13:38:00.337Z,44.01
2019-05-25T13:39:00.325Z,43.41
2019-05-25T13:40:00.316Z,44.21
2019-05-25T13:41:00.301Z,44.12
2019-05-25T13:42:00.304Z,43.82
2019-05-25T13:43:00.295Z,43.82
2019-05-25T13:44:00.275Z,44.21
2019-05-25T13:45:00.263Z,43.82
2019-05-25T13:46:00.249Z,44.01
2019-05-25T13:47:00.244Z,44.51
2019-05-25T13:48:06.317Z,43.71
2019-05-25T13:49:00.216Z,43.71
2019-05-25T13:50:00.242Z,43.62
2019-05-25T13:51:00.193Z,43.82
2019-05-25T13:52:00.189Z,43.21
2019-05-25T13:53:00.178Z,43.71
2019-05-25T13:54:00.161Z,43.91
2019-05-25T13:55:00.151Z,43.51
2019-05-25T13:56:00.138Z,43.82
2019-05-25T13:57:00.126Z,43.91
2019-05-25T13:58:00.123Z,43.71
2019-05-25T13:59:00.105Z,43.12
2019-05-25T14:00:00.105Z,43.82
2019-05-25T14:01:00.087Z,43.91
2019-05-25T14:02:00.072Z,43.62
2019-05-25T14:03:00.092Z,43.62
2019-05-25T14:04:00.088Z,43.62
2019-05-25T14:05:00.034Z,43.62
2019-05-25T14:06:00.032Z,43.71
2019-05-25T14:07:00.018Z,43.01
2019-05-25T14:08:00.003Z,43.01
2019-05-25T14:08:59.997Z,43.01
2019-05-25T14:10:00.000Z,42.82
2019-05-25T14:10:59.975Z,43.32
2019-05-25T14:11:59.960Z,43.41
2019-05-25T14:12:59.950Z,42.82
2019-05-25T14:14:00.429Z,42.91
2019-05-25T14:14:59.933Z,42.82
2019-05-25T14:16:07.317Z,43.12
2019-05-25T14:17:00.903Z,42.41
2019-05-25T14:17:59.893Z,42.91
2019-05-25T14:19:00.403Z,42.61
2019-05-25T14:20:06.453Z,42.61
2019-05-25T14:20:59.861Z,43.01
2019-05-25T14:21:59.850Z,43.21
2019-05-25T14:22:59.844Z,42.82
2019-05-25T14:23:59.830Z,42.61
2019-05-25T14:24:59.815Z,43.32
2019-05-25T14:25:59.826Z,43.51
2019-05-25T14:26:59.791Z,44.01
2019-05-25T14:27:59.797Z,43.82
2019-05-25T14:28:59.771Z,43.01
2019-05-25T14:29:59.765Z,43.62
2019-05-25T14:30:59.747Z,44.01
2019-05-25T14:31:59.750Z,43.82
2019-05-25T14:32:59.728Z,43.82
2019-05-25T14:33:59.788Z,43.41
2019-05-25T14:34:59.702Z,42.52
2019-05-25T14:35:59.699Z,42.91
2019-05-25T14:36:59.693Z,42.71
2019-05-25T14:37:59.677Z,42.11
2019-05-25T14:38:59.658Z,42.41
2019-05-25T14:39:59.654Z,42.91
2019-05-25T14:40:59.639Z,42.82
2019-05-25T14:41:59.701Z,42.71
2019-05-25T14:42:59.614Z,42.71
2019-05-25T14:43:59.602Z,42.91
2019-05-25T14:44:59.595Z,42.82
2019-05-25T14:45:59.584Z,42.32
2019-05-25T14:46:59.578Z,43.12
2019-05-25T14:47:59.600Z,42.82
2019-05-25T14:48:59.553Z,43.01
2019-05-25T14:49:59.543Z,43.01
2019-05-25T14:50:59.527Z,42.91
2019-05-25T14:52:05.620Z,43.12
2019-05-25T14:52:59.505Z,42.91
2019-05-25T14:53:59.509Z,43.32
2019-05-25T14:54:59.482Z,43.21
2019-05-25T14:55:59.475Z,43.71
2019-05-25T14:56:59.466Z,43.21
2019-05-25T14:57:59.458Z,42.32
2019-05-25T14:58:59.454Z,43.29
2019-05-25T14:59:59.430Z,43.32
2019-05-25T15:00:59.430Z,42.41
2019-05-25T15:02:02.596Z,42.91
2019-05-25T15:02:59.396Z,42.91
2019-05-25T15:03:59.391Z,42.21
2019-05-25T15:04:59.372Z,43.12
2019-05-25T15:05:59.359Z,43.01
2019-05-25T15:06:59.352Z,42.61
2019-05-25T15:07:59.339Z,43.01
2019-05-25T15:08:59.369Z,42.61
2019-05-25T15:09:59.318Z,42.82
2019-05-25T15:10:59.305Z,43.12
2019-05-25T15:11:59.292Z,43.32
2019-05-25T15:12:59.289Z,42.41
2019-05-25T15:13:59.940Z,42.41
2019-05-25T15:14:59.272Z,42.71
2019-05-25T15:15:59.252Z,42.21
2019-05-25T15:16:59.254Z,42.52
2019-05-25T15:17:59.230Z,42.82
2019-05-25T15:18:59.282Z,43.01
2019-05-25T15:19:59.252Z,43.21
2019-05-25T15:20:59.209Z,42.21
2019-05-25T15:21:59.250Z,43.32
2019-05-25T15:22:59.180Z,42.91
2019-05-25T15:24:05.481Z,42.91
2019-05-25T15:24:59.157Z,43.12
2019-05-25T15:25:59.147Z,42.91
2019-05-25T15:41:59.002Z,43.24
2019-05-25T15:46:58.905Z,42.91
2019-05-25T15:56:04.899Z,42.52
2019-05-25T16:12:58.626Z,41.71
2019-05-25T16:13:59.476Z,41.41
2019-05-25T16:17:58.564Z,41.82
2019-05-25T16:28:04.543Z,40.93
2019-05-25T16:43:58.279Z,41.13
2019-05-25T16:48:58.219Z,41.03
2019-05-25T17:00:04.190Z,41.43
2019-05-25T17:14:57.927Z,40.93
2019-05-25T17:19:57.870Z,41.24
2019-05-25T17:32:03.832Z,41.41
2019-05-25T17:45:57.628Z,42.41
2019-05-25T17:50:57.528Z,42.41
2019-05-25T18:04:07.113Z,41.71
2019-05-25T18:16:57.236Z,41.82
2019-05-25T18:21:59.072Z,41.41
2019-05-25T18:36:03.124Z,40.81
2019-05-25T18:47:56.896Z,41.41
2019-05-25T18:52:56.842Z,41.02
2019-05-25T19:08:02.765Z,40.93
2019-05-25T19:18:56.571Z,41.71
2019-05-25T19:23:56.495Z,41.21
2019-05-25T19:40:08.604Z,41.11
2019-05-25T19:49:56.224Z,41.41
2019-05-25T19:54:56.156Z,41.31
2019-05-25T20:12:02.127Z,41.11
2019-05-25T20:20:55.903Z,41.21
2019-05-25T20:25:55.811Z,40.81
2019-05-25T20:44:01.703Z,41.11
2019-05-25T20:51:55.517Z,41.21
2019-05-25T20:56:55.464Z,40.81
2019-05-25T21:16:01.357Z,41.21
2019-05-25T21:22:55.175Z,41.31
2019-05-25T21:27:55.117Z,41.31
2019-05-25T21:48:01.184Z,40.71
2019-05-25T21:53:54.890Z,41.41
2019-05-25T21:58:54.808Z,41.31
2019-05-25T22:20:00.930Z,41.21
2019-05-25T22:24:54.488Z,41.31
2019-05-25T22:29:54.432Z,41.31
2019-05-25T22:52:00.274Z,41.11
2019-05-25T22:55:54.148Z,41.02
2019-05-25T23:00:54.103Z,41.31
2019-05-25T23:24:00.245Z,41.41
2019-05-25T23:26:53.807Z,41.61
2019-05-25T23:31:53.745Z,41.52
2019-05-25T23:55:59.568Z,41.61
2019-05-25T23:57:53.469Z,41.21
